createdAt,value
2019-03-24T00:00:57.831Z,27.90
2019-03-24T00:03:28.081Z,28.57
2019-03-24T00:05:58.148Z,29.37
2019-03-24T00:08:28.281Z,27.40
2019-03-24T00:10:58.351Z,28.37
2019-03-24T00:13:28.386Z,27.63
2019-03-24T00:15:58.399Z,29.07
2019-03-24T00:18:28.456Z,27.77
2019-03-24T00:20:58.539Z,28.80
2019-03-24T00:23:28.657Z,27.80
2019-03-24T00:25:58.729Z,29.67
2019-03-24T00:28:28.710Z,29.67
2019-03-24T00:30:59.063Z,27.93
2019-03-24T00:33:28.983Z,29.37
2019-03-24T00:35:59.115Z,30.80
2019-03-24T00:38:29.150Z,28.80
2019-03-24T00:40:59.172Z,28.73
2019-03-24T00:43:29.229Z,30.47
2019-03-24T00:45:59.284Z,30.77
2019-03-24T00:48:29.202Z,30.80
2019-03-24T00:50:59.231Z,31.77
2019-03-24T00:53:29.262Z,31.13
2019-03-24T00:55:59.335Z,31.53
2019-03-24T00:58:29.317Z,32.20
2019-03-24T01:00:59.280Z,30.30
2019-03-24T01:03:29.466Z,31.27
2019-03-24T01:06:01.699Z,31.07
2019-03-24T01:08:30.994Z,31.63
2019-03-24T01:11:01.044Z,31.20
2019-03-24T01:13:31.034Z,31.67
2019-03-24T01:16:01.028Z,31.03
2019-03-24T01:18:31.042Z,28.93
2019-03-24T01:21:01.121Z,30.90
2019-03-24T01:23:31.077Z,31.20
2019-03-24T01:26:01.235Z,30.23
2019-03-24T01:28:31.003Z,31.10
2019-03-24T01:31:00.818Z,31.00
2019-03-24T01:33:30.601Z,31.23
2019-03-24T01:36:00.423Z,30.93
2019-03-24T01:38:30.295Z,30.53
2019-03-24T01:41:00.159Z,30.30
2019-03-24T01:43:30.303Z,30.63
2019-03-24T01:46:00.212Z,30.40
2019-03-24T01:48:30.090Z,32.40
2019-03-24T01:51:00.481Z,31.67
2019-03-24T01:53:30.259Z,30.80
2019-03-24T01:56:00.080Z,31.23
2019-03-24T01:58:29.864Z,31.10
2019-03-24T02:00:59.680Z,31.50
2019-03-24T02:03:29.468Z,29.97
2019-03-24T02:05:59.243Z,31.40
2019-03-24T02:08:29.035Z,31.53
2019-03-24T02:10:58.843Z,31.47
2019-03-24T02:13:28.637Z,31.90
2019-03-24T02:16:08.800Z,31.93
2019-03-24T02:18:29.994Z,33.17
2019-03-24T02:20:59.815Z,31.90
2019-03-24T02:23:29.626Z,32.73
2019-03-24T02:25:59.564Z,31.20
2019-03-24T02:28:29.418Z,31.43
2019-03-24T02:30:59.400Z,33.00
2019-03-24T02:33:29.282Z,31.47
2019-03-24T02:35:59.170Z,33.47
2019-03-24T02:38:28.969Z,31.57
2019-03-24T02:40:58.872Z,31.73
2019-03-24T02:43:28.747Z,31.70
2019-03-24T02:45:58.693Z,31.23
2019-03-24T02:48:28.403Z,32.60
2019-03-24T02:50:58.287Z,32.90
2019-03-24T02:53:28.119Z,32.93
2019-03-24T02:55:57.947Z,32.57
2019-03-24T02:58:27.729Z,35.27
2019-03-24T03:00:57.529Z,33.27
2019-03-24T03:03:27.428Z,32.23
2019-03-24T03:05:57.338Z,34.93
2019-03-24T03:08:27.160Z,31.10
2019-03-24T03:10:57.032Z,33.77
2019-03-24T03:13:26.921Z,34.30
2019-03-24T03:15:56.808Z,33.90
2019-03-24T03:18:26.604Z,32.83
2019-03-24T03:20:56.415Z,32.87
2019-03-24T03:23:26.292Z,33.73
2019-03-24T03:25:56.164Z,32.60
2019-03-24T03:28:25.901Z,32.63
2019-03-24T03:30:55.699Z,33.00
2019-03-24T03:33:25.532Z,31.80
2019-03-24T03:35:55.394Z,33.67
2019-03-24T03:38:25.202Z,32.13
2019-03-24T03:40:55.118Z,32.50
2019-03-24T03:43:24.975Z,32.93
2019-03-24T03:45:54.796Z,34.00
2019-03-24T03:48:24.614Z,30.70
2019-03-24T03:50:54.403Z,31.40
2019-03-24T03:53:24.295Z,32.77
2019-03-24T03:55:54.104Z,31.03
2019-03-24T03:58:23.920Z,30.60
2019-03-24T04:00:53.773Z,29.27
2019-03-24T04:03:23.696Z,30.47
2019-03-24T04:05:53.569Z,29.97
2019-03-24T04:08:23.466Z,30.50
2019-03-24T04:10:53.330Z,31.23
2019-03-24T04:13:23.223Z,31.40
2019-03-24T04:15:53.087Z,31.60
2019-03-24T04:18:23.001Z,30.87
2019-03-24T04:20:52.895Z,31.80
2019-03-24T04:23:22.760Z,31.80
2019-03-24T04:25:52.603Z,30.40
2019-03-24T04:28:22.463Z,29.50
2019-03-24T04:30:52.398Z,30.37
2019-03-24T04:33:22.269Z,30.83
2019-03-24T04:35:52.148Z,30.30
2019-03-24T04:38:22.019Z,31.27
2019-03-24T04:40:51.915Z,29.47
2019-03-24T04:43:21.767Z,28.60
2019-03-24T04:45:51.694Z,28.33
2019-03-24T04:48:21.483Z,28.00
2019-03-24T04:50:51.368Z,27.13
2019-03-24T04:53:21.173Z,26.90
2019-03-24T04:55:51.091Z,26.97
2019-03-24T04:58:20.891Z,26.73
2019-03-24T05:00:50.782Z,25.77
2019-03-24T05:03:20.655Z,26.47
2019-03-24T05:05:50.995Z,25.60
2019-03-24T05:08:20.900Z,25.70
2019-03-24T05:10:50.740Z,25.63
2019-03-24T05:13:20.462Z,25.50
2019-03-24T05:15:50.492Z,25.40
2019-03-24T05:18:20.345Z,25.13
2019-03-24T05:20:50.227Z,25.00
2019-03-24T05:23:20.190Z,26.33
2019-03-24T05:25:50.008Z,25.60
2019-03-24T05:28:19.897Z,24.67
2019-03-24T05:30:49.708Z,22.67
2019-03-24T05:33:19.510Z,23.67
2019-03-24T05:35:49.386Z,25.40
2019-03-24T05:38:19.183Z,24.57
2019-03-24T05:40:48.918Z,25.60
2019-03-24T05:43:18.752Z,25.27
2019-03-24T05:45:48.655Z,25.43
2019-03-24T05:48:18.579Z,26.20
2019-03-24T05:50:48.367Z,27.10
2019-03-24T05:53:18.195Z,27.60
2019-03-24T05:55:47.996Z,27.30
2019-03-24T05:58:17.830Z,29.43
2019-03-24T06:00:47.646Z,29.07
2019-03-24T06:03:17.556Z,30.23
2019-03-24T06:05:47.381Z,28.43
2019-03-24T06:08:17.261Z,30.87
2019-03-24T06:10:47.111Z,31.73
2019-03-24T06:13:16.948Z,30.87
2019-03-24T06:15:46.854Z,31.63
2019-03-24T06:18:16.729Z,32.47
2019-03-24T06:20:46.618Z,32.10
2019-03-24T06:23:16.544Z,31.50
2019-03-24T06:25:46.332Z,31.60
2019-03-24T06:28:16.221Z,33.27
2019-03-24T06:30:46.034Z,31.50
2019-03-24T06:33:15.887Z,33.20
2019-03-24T06:35:45.723Z,31.00
2019-03-24T06:38:15.615Z,32.73
2019-03-24T06:40:45.425Z,31.73
2019-03-24T06:43:15.258Z,30.37
2019-03-24T06:45:45.230Z,32.30
2019-03-24T06:48:15.110Z,32.67
2019-03-24T06:50:44.828Z,32.93
2019-03-24T06:53:14.705Z,31.90
2019-03-24T06:55:44.597Z,32.20
2019-03-24T06:58:14.958Z,31.80
2019-03-24T07:00:44.821Z,34.57
2019-03-24T07:03:14.684Z,31.77
2019-03-24T07:05:44.512Z,33.37
2019-03-24T07:08:14.490Z,32.17
2019-03-24T07:10:44.280Z,33.40
2019-03-24T07:13:14.149Z,32.70
2019-03-24T07:15:44.008Z,31.17
2019-03-24T07:18:13.872Z,30.57
2019-03-24T07:20:43.782Z,30.63
2019-03-24T07:23:13.591Z,31.53
2019-03-24T07:25:43.384Z,31.27
2019-03-24T07:28:13.200Z,32.23
2019-03-24T07:30:43.070Z,31.07
2019-03-24T07:33:12.882Z,30.17
2019-03-24T07:35:42.698Z,30.73
2019-03-24T07:38:12.433Z,32.57
2019-03-24T07:40:42.319Z,31.80
2019-03-24T07:43:12.132Z,30.83
2019-03-24T07:45:41.993Z,30.13
2019-03-24T07:48:18.970Z,30.87
2019-03-24T07:50:43.321Z,31.47
2019-03-24T07:53:13.251Z,30.37
2019-03-24T07:55:43.103Z,30.93
2019-03-24T07:58:12.984Z,31.53
2019-03-24T08:00:42.795Z,32.03
2019-03-24T08:03:12.613Z,31.40
2019-03-24T08:05:42.565Z,31.13
2019-03-24T08:08:12.365Z,32.07
2019-03-24T08:10:42.241Z,30.53
2019-03-24T08:13:12.044Z,30.80
2019-03-24T08:15:41.868Z,31.23
2019-03-24T08:18:11.666Z,29.80
2019-03-24T08:20:41.553Z,29.83
2019-03-24T08:23:11.425Z,29.67
2019-03-24T08:25:41.349Z,35.40
2019-03-24T08:28:11.131Z,36.40
2019-03-24T08:30:40.958Z,34.97
2019-03-24T08:33:10.829Z,34.57
2019-03-24T08:35:40.559Z,33.87
2019-03-24T08:38:10.372Z,35.70
2019-03-24T08:40:40.227Z,33.30
2019-03-24T08:43:10.636Z,34.80
2019-03-24T08:45:40.880Z,34.67
2019-03-24T08:48:11.004Z,35.67
2019-03-24T08:50:41.626Z,32.50
2019-03-24T08:53:12.142Z,34.03
2019-03-24T08:55:42.646Z,36.23
2019-03-24T08:58:13.039Z,37.90
2019-03-24T09:00:43.531Z,35.70
2019-03-24T09:03:13.903Z,36.53
2019-03-24T09:05:44.210Z,33.63
2019-03-24T09:08:14.610Z,33.30
2019-03-24T09:10:45.080Z,36.33
2019-03-24T09:13:15.695Z,37.10
2019-03-24T09:15:46.215Z,34.97
2019-03-24T09:18:16.378Z,35.20
2019-03-24T09:20:46.798Z,36.87
2019-03-24T09:23:16.981Z,38.17
2019-03-24T09:25:47.440Z,36.53
2019-03-24T09:28:18.202Z,35.87
2019-03-24T09:30:48.460Z,34.80
2019-03-24T09:33:18.196Z,35.10
2019-03-24T09:35:48.080Z,34.70
2019-03-24T09:38:17.971Z,36.00
2019-03-24T09:40:47.869Z,34.67
2019-03-24T09:43:17.664Z,35.13
2019-03-24T09:45:47.526Z,35.43
2019-03-24T09:48:17.355Z,27.33
2019-03-24T09:50:47.103Z,35.07
2019-03-24T09:53:16.866Z,31.80
2019-03-24T09:55:46.612Z,36.47
2019-03-24T09:58:16.422Z,30.53
2019-03-24T10:00:46.308Z,32.07
2019-03-24T10:03:16.177Z,29.60
2019-03-24T10:05:46.002Z,31.93
2019-03-24T10:08:16.046Z,32.73
2019-03-24T10:10:45.791Z,31.17
2019-03-24T10:13:15.555Z,29.27
2019-03-24T10:15:45.314Z,30.00
2019-03-24T10:18:15.016Z,31.40
2019-03-24T10:20:44.732Z,33.57
2019-03-24T10:23:14.549Z,32.47
2019-03-24T10:25:44.360Z,34.70
2019-03-24T10:28:14.172Z,32.20
2019-03-24T10:30:43.974Z,30.90
2019-03-24T10:33:13.709Z,31.63
2019-03-24T10:35:43.471Z,28.93
2019-03-24T10:38:13.199Z,28.70
2019-03-24T10:40:42.998Z,27.27
2019-03-24T10:43:12.727Z,28.07
2019-03-24T10:45:42.441Z,27.43
2019-03-24T10:48:12.272Z,29.00
2019-03-24T10:50:42.028Z,26.77
2019-03-24T10:53:11.740Z,28.00
2019-03-24T10:55:41.549Z,27.40
2019-03-24T10:58:11.275Z,25.97
2019-03-24T11:00:43.187Z,26.33
2019-03-24T11:03:12.891Z,25.47
2019-03-24T11:05:42.703Z,24.53
2019-03-24T11:08:12.571Z,24.37
2019-03-24T11:10:42.442Z,25.30
2019-03-24T11:13:12.364Z,23.77
2019-03-24T11:15:42.123Z,26.07
2019-03-24T11:18:11.917Z,24.90
2019-03-24T11:20:41.686Z,25.13
2019-03-24T11:23:11.556Z,24.60
2019-03-24T11:25:41.322Z,24.83
2019-03-24T11:28:11.451Z,24.30
2019-03-24T11:30:41.131Z,23.60
2019-03-24T11:33:10.836Z,22.63
2019-03-24T11:35:40.608Z,21.77
2019-03-24T11:38:10.444Z,22.90
2019-03-24T11:40:40.135Z,21.37
2019-03-24T11:43:10.079Z,21.20
2019-03-24T11:45:40.008Z,18.47
2019-03-24T11:48:09.793Z,18.40
2019-03-24T11:50:39.692Z,20.00
2019-03-24T11:53:09.491Z,18.67
2019-03-24T11:55:39.435Z,20.17
2019-03-24T11:58:09.235Z,19.17
2019-03-24T12:00:40.531Z,19.93
2019-03-24T12:03:10.267Z,20.93
2019-03-24T12:05:40.535Z,21.70
2019-03-24T12:08:10.328Z,19.13
2019-03-24T12:10:40.329Z,18.93
2019-03-24T12:13:10.164Z,19.37
2019-03-24T12:15:39.979Z,21.33
2019-03-24T12:18:09.723Z,21.80
2019-03-24T12:20:39.572Z,20.70
2019-03-24T12:23:09.440Z,19.70
2019-03-24T12:25:46.939Z,18.80
2019-03-24T12:28:16.795Z,16.93
2019-03-24T12:30:46.704Z,17.63
2019-03-24T12:33:16.585Z,18.10
2019-03-24T12:35:46.442Z,18.73
2019-03-24T12:38:16.297Z,18.83
2019-03-24T12:40:46.023Z,17.70
2019-03-24T12:43:19.760Z,19.57
2019-03-24T12:45:47.345Z,20.33
2019-03-24T12:48:17.257Z,21.57
2019-03-24T12:50:47.105Z,21.10
2019-03-24T12:53:16.967Z,20.57
2019-03-24T12:55:46.992Z,21.33
2019-03-24T12:58:16.873Z,18.80
2019-03-24T13:00:46.681Z,20.17
2019-03-24T13:03:16.468Z,19.07
2019-03-24T13:05:46.389Z,18.43
2019-03-24T13:08:18.345Z,19.90
2019-03-24T13:10:48.579Z,20.17
2019-03-24T13:13:18.468Z,19.77
2019-03-24T13:15:48.292Z,20.80
2019-03-24T13:18:19.112Z,20.43
2019-03-24T13:20:48.935Z,20.30
2019-03-24T13:23:18.666Z,20.97
2019-03-24T13:25:50.460Z,20.17
2019-03-24T13:28:20.174Z,18.97
2019-03-24T13:30:50.120Z,19.37
2019-03-24T13:33:19.959Z,20.27
2019-03-24T13:35:54.948Z,20.10
2019-03-24T13:38:24.743Z,21.53
2019-03-24T13:40:54.608Z,20.80
2019-03-24T13:43:24.408Z,21.80
2019-03-24T13:45:54.180Z,22.47
2019-03-24T13:48:23.974Z,22.97
2019-03-24T13:51:12.597Z,24.07
2019-03-24T13:53:42.392Z,23.83
2019-03-24T13:56:12.214Z,24.03
2019-03-24T13:58:42.058Z,21.83
2019-03-24T14:01:12.492Z,21.43
2019-03-24T14:03:42.291Z,22.43
2019-03-24T14:06:12.095Z,20.50
2019-03-24T14:08:41.815Z,21.47
2019-03-24T14:11:11.635Z,20.83
2019-03-24T14:13:41.449Z,20.63
2019-03-24T14:16:11.337Z,21.57
2019-03-24T14:18:41.125Z,21.33
2019-03-24T14:21:11.017Z,24.60
2019-03-24T14:23:40.871Z,52.73
2019-03-24T14:26:10.607Z,64.47
2019-03-24T14:28:40.416Z,28.07
2019-03-24T14:31:10.161Z,29.13
2019-03-24T14:33:40.016Z,22.63
2019-03-24T14:36:09.828Z,21.93
2019-03-24T14:38:39.686Z,18.87
2019-03-24T14:41:09.592Z,21.47
2019-03-24T14:43:39.444Z,22.27
2019-03-24T14:46:09.260Z,19.93
2019-03-24T14:48:39.055Z,27.43
2019-03-24T14:51:08.938Z,19.93
2019-03-24T14:53:38.723Z,18.47
2019-03-24T14:56:08.537Z,18.47
2019-03-24T14:58:38.252Z,19.37
2019-03-24T15:01:08.063Z,18.70
2019-03-24T15:03:37.864Z,18.30
2019-03-24T15:06:07.805Z,16.67
2019-03-24T15:08:37.615Z,16.97
2019-03-24T15:11:07.489Z,15.10
2019-03-24T15:13:37.262Z,13.20
2019-03-24T15:16:07.076Z,13.67
2019-03-24T15:18:37.008Z,14.47
2019-03-24T15:21:06.802Z,15.70
2019-03-24T15:23:36.726Z,14.33
2019-03-24T15:26:06.581Z,13.80
2019-03-24T15:28:36.320Z,15.13
2019-03-24T15:31:06.187Z,14.53
2019-03-24T15:33:36.008Z,16.03
2019-03-24T15:36:05.735Z,16.27
2019-03-24T15:38:35.559Z,17.93
2019-03-24T15:41:05.431Z,14.80
2019-03-24T15:43:35.253Z,17.47
2019-03-24T15:46:05.650Z,16.13
2019-03-24T15:48:35.464Z,16.57
2019-03-24T15:51:16.049Z,22.83
2019-03-24T15:53:36.726Z,15.30
2019-03-24T15:56:06.454Z,15.50
2019-03-24T15:58:36.372Z,15.27
2019-03-24T16:01:06.308Z,15.00
2019-03-24T16:03:36.055Z,14.10
2019-03-24T16:06:05.863Z,13.03
2019-03-24T16:08:35.680Z,17.10
2019-03-24T16:11:05.417Z,11.40
2019-03-24T16:13:35.329Z,13.47
2019-03-24T16:16:05.196Z,14.00
2019-03-24T16:18:35.034Z,12.73
2019-03-24T16:21:04.928Z,13.03
2019-03-24T16:23:34.765Z,12.87
2019-03-24T16:26:04.587Z,16.90
2019-03-24T16:28:34.416Z,18.10
2019-03-24T16:31:04.220Z,13.47
2019-03-24T16:33:34.008Z,14.60
2019-03-24T16:36:03.812Z,12.67
2019-03-24T16:38:33.540Z,14.70
2019-03-24T16:41:03.366Z,13.37
2019-03-24T16:43:33.256Z,13.23
2019-03-24T16:46:03.121Z,14.13
2019-03-24T16:48:37.070Z,14.00
2019-03-24T16:51:04.570Z,16.40
2019-03-24T16:53:34.469Z,15.50
2019-03-24T16:56:04.334Z,16.93
2019-03-24T16:58:34.156Z,17.20
2019-03-24T17:01:03.971Z,17.90
2019-03-24T17:03:33.863Z,16.03
2019-03-24T17:06:03.681Z,17.03
2019-03-24T17:08:33.579Z,17.80
2019-03-24T17:11:03.307Z,17.40
2019-03-24T17:13:33.153Z,18.57
2019-03-24T17:16:03.055Z,19.20
2019-03-24T17:18:32.840Z,19.57
2019-03-24T17:21:02.630Z,23.40
2019-03-24T17:23:32.543Z,20.67
2019-03-24T17:26:02.359Z,23.43
2019-03-24T17:28:32.179Z,26.23
2019-03-24T17:31:01.989Z,25.17
2019-03-24T17:33:34.097Z,26.03
2019-03-24T17:36:03.654Z,31.53
2019-03-24T17:38:33.440Z,25.50
2019-03-24T17:41:03.248Z,26.53
2019-03-24T17:43:33.112Z,29.83
2019-03-24T17:46:02.948Z,29.57
2019-03-24T17:48:32.662Z,55.27
2019-03-24T17:51:02.485Z,42.40
2019-03-24T17:53:32.405Z,23.13
2019-03-24T17:56:02.321Z,25.73
2019-03-24T17:58:32.236Z,23.97
2019-03-24T18:01:02.117Z,22.17
2019-03-24T18:03:31.923Z,22.33
2019-03-24T18:06:01.834Z,22.07
2019-03-24T18:08:31.626Z,24.27
2019-03-24T18:11:01.439Z,22.00
2019-03-24T18:13:31.280Z,22.27
2019-03-24T18:16:01.270Z,21.37
2019-03-24T18:18:32.044Z,21.47
2019-03-24T18:21:01.848Z,18.67
2019-03-24T18:23:31.716Z,21.10
2019-03-24T18:26:01.551Z,17.27
2019-03-24T18:28:31.387Z,16.40
2019-03-24T18:31:01.198Z,14.53
2019-03-24T18:33:31.111Z,15.93
2019-03-24T18:36:00.924Z,15.37
2019-03-24T18:38:30.779Z,15.27
2019-03-24T18:41:00.589Z,15.83
2019-03-24T18:43:30.382Z,14.90
2019-03-24T18:46:00.267Z,15.90
2019-03-24T18:48:30.077Z,16.20
2019-03-24T18:50:59.967Z,15.33
2019-03-24T18:53:29.847Z,14.40
2019-03-24T18:55:59.754Z,13.13
2019-03-24T18:58:31.964Z,12.20
2019-03-24T19:01:01.189Z,10.70
2019-03-24T19:03:31.056Z,13.17
2019-03-24T19:06:00.912Z,12.77
2019-03-24T19:08:30.812Z,13.80
2019-03-24T19:11:00.660Z,13.70
2019-03-24T19:13:30.464Z,12.40
2019-03-24T19:16:00.330Z,13.40
2019-03-24T19:18:30.076Z,13.23
2019-03-24T19:20:59.879Z,12.60
2019-03-24T19:23:29.776Z,11.47
2019-03-24T19:25:59.642Z,12.07
2019-03-24T19:28:29.455Z,11.10
2019-03-24T19:30:59.270Z,10.67
2019-03-24T19:33:29.741Z,9.70
2019-03-24T19:35:59.789Z,9.07
2019-03-24T19:38:33.636Z,8.40
2019-03-24T19:41:03.629Z,8.77
2019-03-24T19:43:33.375Z,7.70
2019-03-24T19:46:03.160Z,8.27
2019-03-24T19:48:33.080Z,7.73
2019-03-24T19:51:02.893Z,7.50
2019-03-24T19:53:32.840Z,7.57
2019-03-24T19:56:02.630Z,6.73
2019-03-24T19:58:32.462Z,6.83
2019-03-24T20:01:02.283Z,6.97
2019-03-24T20:03:31.988Z,7.10
2019-03-24T20:06:01.900Z,5.63
2019-03-24T20:08:31.715Z,6.03
2019-03-24T20:11:01.608Z,6.20
2019-03-24T20:13:31.447Z,5.37
2019-03-24T20:16:01.261Z,5.20
2019-03-24T20:18:31.141Z,5.87
2019-03-24T20:21:00.938Z,13.47
2019-03-24T20:23:30.646Z,24.77
2019-03-24T20:26:00.455Z,4.77
2019-03-24T20:28:30.199Z,5.30
2019-03-24T20:31:00.020Z,6.70
2019-03-24T20:33:32.355Z,16.10
2019-03-24T20:36:01.361Z,11.20
2019-03-24T20:38:31.219Z,4.37
2019-03-24T20:41:01.065Z,4.40
2019-03-24T20:43:31.020Z,4.73
2019-03-24T20:46:01.067Z,3.63
2019-03-24T20:48:31.201Z,3.63
2019-03-24T20:51:01.214Z,4.00
2019-03-24T20:53:31.686Z,3.80
2019-03-24T20:56:01.869Z,3.87
2019-03-24T20:58:33.548Z,3.93
2019-03-24T21:01:03.810Z,3.60
2019-03-24T21:03:34.271Z,3.97
2019-03-24T21:06:04.561Z,3.57
2019-03-24T21:08:34.751Z,3.83
2019-03-24T21:11:04.962Z,5.77
2019-03-24T21:13:36.405Z,4.30
2019-03-24T21:16:07.865Z,4.00
2019-03-24T21:18:39.220Z,4.20
2019-03-24T21:21:10.109Z,3.73
2019-03-24T21:23:41.100Z,4.03
2019-03-24T21:26:11.395Z,3.57
2019-03-24T21:28:42.270Z,3.53
2019-03-24T21:31:12.280Z,3.90
2019-03-24T21:33:42.189Z,3.73
2019-03-24T21:36:12.687Z,3.30
2019-03-24T21:38:44.494Z,4.00
2019-03-24T21:41:15.349Z,4.00
2019-03-24T21:43:45.468Z,4.30
2019-03-24T21:46:15.636Z,3.40
2019-03-24T21:48:45.860Z,3.93
2019-03-24T21:51:15.905Z,4.10
2019-03-24T21:53:45.907Z,3.90
2019-03-24T21:56:16.139Z,3.67
2019-03-24T21:58:46.047Z,3.17
2019-03-24T22:01:16.206Z,3.27
2019-03-24T22:03:46.220Z,3.70
2019-03-24T22:06:16.380Z,3.93
2019-03-24T22:08:46.455Z,3.80
2019-03-24T22:11:16.387Z,3.90
2019-03-24T22:13:46.247Z,3.73
2019-03-24T22:16:17.981Z,3.07
2019-03-24T22:18:49.662Z,3.43
2019-03-24T22:21:22.134Z,3.43
2019-03-24T22:23:53.618Z,3.47
2019-03-24T22:26:25.519Z,4.97
2019-03-24T22:28:57.159Z,4.97
2019-03-24T22:31:29.104Z,3.50
2019-03-24T22:34:01.063Z,3.40
2019-03-24T22:36:33.549Z,3.40
2019-03-24T22:39:06.572Z,2.77
2019-03-24T22:41:38.146Z,3.17
2019-03-24T22:44:09.811Z,3.43
2019-03-24T22:46:41.053Z,4.07
2019-03-24T22:49:12.588Z,4.17
2019-03-24T22:51:42.287Z,3.00
2019-03-24T22:54:12.124Z,3.20
2019-03-24T22:56:42.009Z,3.23
2019-03-24T22:59:11.875Z,3.37
2019-03-24T23:01:41.718Z,5.53
2019-03-24T23:04:11.563Z,3.70
2019-03-24T23:06:41.375Z,2.97
2019-03-24T23:09:11.383Z,3.30
2019-03-24T23:11:41.292Z,3.17
2019-03-24T23:14:11.375Z,6.27
2019-03-24T23:16:42.137Z,4.83
2019-03-24T23:19:11.922Z,4.77
2019-03-24T23:21:41.643Z,2.80
2019-03-24T23:24:15.684Z,2.80
2019-03-24T23:26:42.983Z,3.10
2019-03-24T23:29:12.777Z,3.50
2019-03-24T23:31:42.571Z,3.33
2019-03-24T23:34:12.271Z,2.87
2019-03-24T23:36:42.071Z,2.80
2019-03-24T23:39:11.776Z,3.13
2019-03-24T23:41:41.519Z,2.67
2019-03-24T23:44:11.272Z,3.27
2019-03-24T23:46:41.092Z,3.23
2019-03-24T23:49:10.912Z,3.37
2019-03-24T23:51:40.667Z,3.20
2019-03-24T23:54:10.448Z,3.23
2019-03-24T23:56:40.472Z,3.13
2019-03-24T23:59:10.301Z,3.20
